Time;durP1;ratioP1;P1;durP2;ratioP2;P2;SDS_P1;SDS_P2;PMS_P1;PMS_P2;Temp;Humidity;BMP_temperature;BMP_pressure;BME280_temperature;BME280_humidity;BME280_pressure;Samples;Min_cycle;Max_cycle;Signal;HPM_P1;HPM_P2
2021/06/30 00:00:26;;;;;;;13.83;12.00;;;15.40;99.90;;;;;;5018475;28;20258;-76
2021/06/30 00:02:52;;;;;;;13.73;12.33;;;15.40;99.90;;;;;;5023933;28;20675;-77
2021/06/30 00:05:18;;;;;;;14.67;11.80;;;15.40;99.90;;;;;;5019555;28;20217;-76
2021/06/30 00:07:43;;;;;;;15.90;11.30;;;15.40;99.90;;;;;;5014473;28;20588;-75
2021/06/30 00:10:10;;;;;;;17.57;12.23;;;15.40;99.90;;;;;;5019166;28;20187;-75
2021/06/30 00:12:36;;;;;;;14.40;11.20;;;15.40;99.90;;;;;;5019497;28;20196;-79
2021/06/30 00:15:08;;;;;;;12.70;11.17;;;15.40;99.90;;;;;;5017266;28;20437;-77
2021/06/30 00:17:34;;;;;;;11.70;10.30;;;15.40;99.90;;;;;;5019984;28;20427;-76
2021/06/30 00:20:01;;;;;;;14.00;11.23;;;15.40;99.90;;;;;;5027690;28;20425;-77
2021/06/30 00:22:26;;;;;;;17.00;11.40;;;15.50;99.90;;;;;;5012041;28;20458;-78
2021/06/30 00:24:52;;;;;;;14.53;12.60;;;15.40;99.90;;;;;;5021069;28;20474;-76
2021/06/30 00:27:17;;;;;;;13.67;12.30;;;15.40;99.90;;;;;;5026916;28;20179;-76
2021/06/30 00:29:43;;;;;;;13.23;11.73;;;15.40;99.90;;;;;;5021959;28;20214;-75
2021/06/30 00:32:08;;;;;;;15.50;11.80;;;15.40;99.90;;;;;;5014425;28;20188;-76
2021/06/30 00:34:34;;;;;;;14.90;12.07;;;15.40;99.90;;;;;;5017918;28;20702;-76
2021/06/30 00:37:00;;;;;;;16.20;12.27;;;15.40;99.90;;;;;;5005094;28;20211;-76
2021/06/30 00:39:25;;;;;;;19.70;13.00;;;15.50;99.90;;;;;;5024940;28;20351;-76
2021/06/30 00:41:51;;;;;;;13.13;10.97;;;15.40;99.90;;;;;;5023007;28;20211;-76
2021/06/30 00:44:17;;;;;;;13.20;10.67;;;15.40;99.90;;;;;;5024177;28;20223;-77
2021/06/30 00:46:42;;;;;;;13.40;11.97;;;15.40;99.90;;;;;;5023864;28;20451;-76
2021/06/30 00:49:09;;;;;;;14.00;11.43;;;15.40;99.90;;;;;;5019664;28;20187;-76
2021/06/30 00:51:35;;;;;;;13.30;10.10;;;15.30;99.90;;;;;;5028155;28;20630;-76
2021/06/30 00:54:00;;;;;;;12.20;11.00;;;15.30;99.90;;;;;;5021393;28;20477;-77
2021/06/30 00:56:27;;;;;;;12.83;10.17;;;15.30;99.90;;;;;;5024898;28;20245;-76
2021/06/30 00:59:00;;;;;;;12.53;11.23;;;15.30;99.90;;;;;;5018517;28;20278;-76
2021/06/30 01:01:27;;;;;;;12.57;11.27;;;15.30;99.90;;;;;;5003673;28;20425;-76
2021/06/30 01:03:53;;;;;;;15.53;10.90;;;15.30;99.90;;;;;;5021523;28;20468;-75
2021/06/30 01:06:20;;;;;;;15.43;11.60;;;15.30;99.90;;;;;;5006511;28;20431;-76
2021/06/30 01:08:46;;;;;;;12.57;10.70;;;15.30;99.90;;;;;;5017505;28;20434;-76
2021/06/30 01:11:14;;;;;;;17.67;11.70;;;15.20;99.90;;;;;;5020565;28;20506;-76
2021/06/30 01:13:40;;;;;;;10.90;9.80;;;15.30;99.90;;;;;;5024623;28;20772;-75
2021/06/30 01:16:06;;;;;;;21.57;11.97;;;15.20;99.90;;;;;;5020758;28;20828;-76
2021/06/30 01:18:33;;;;;;;13.20;11.90;;;15.20;99.90;;;;;;5022532;28;20429;-76
2021/06/30 01:21:01;;;;;;;10.53;9.53;;;15.20;99.90;;;;;;5022948;28;20418;-75
2021/06/30 01:23:26;;;;;;;10.20;9.30;;;15.10;99.90;;;;;;5005876;28;21153;-76
2021/06/30 01:25:53;;;;;;;10.33;9.40;;;15.10;99.90;;;;;;5024175;28;20414;-75
2021/06/30 01:28:20;;;;;;;12.87;10.47;;;15.20;99.90;;;;;;5022971;28;20172;-75
2021/06/30 01:30:49;;;;;;;10.67;9.70;;;15.20;99.90;;;;;;5008946;28;20433;-75
2021/06/30 01:33:15;;;;;;;11.10;9.97;;;15.20;99.90;;;;;;5021387;28;20446;-74
2021/06/30 01:35:41;;;;;;;11.13;10.23;;;15.20;99.90;;;;;;5024586;28;20418;-76
2021/06/30 01:38:07;;;;;;;10.70;9.60;;;15.20;99.90;;;;;;5023138;28;20422;-75
2021/06/30 01:40:33;;;;;;;12.90;11.03;;;15.10;99.90;;;;;;5011101;28;20430;-75
2021/06/30 01:42:59;;;;;;;11.30;10.13;;;15.10;99.90;;;;;;5024044;28;20206;-76
2021/06/30 01:45:26;;;;;;;11.47;10.37;;;15.10;99.90;;;;;;5019758;28;20469;-75
2021/06/30 01:47:53;;;;;;;12.27;11.00;;;15.10;99.90;;;;;;5017971;28;20889;-75
2021/06/30 01:50:18;;;;;;;13.37;10.77;;;15.10;99.90;;;;;;5016510;28;20432;-75
2021/06/30 01:52:45;;;;;;;11.43;10.23;;;15.00;99.90;;;;;;5024291;28;20509;-77
2021/06/30 01:55:12;;;;;;;11.70;10.60;;;15.00;99.90;;;;;;5021326;28;20183;-73
2021/06/30 01:57:42;;;;;;;12.30;11.13;;;15.00;99.90;;;;;;5021142;28;20954;-75
2021/06/30 02:00:09;;;;;;;10.97;9.90;;;15.00;99.90;;;;;;5021677;28;20802;-75
2021/06/30 02:02:36;;;;;;;12.47;10.47;;;15.00;99.90;;;;;;5023667;28;20422;-76
2021/06/30 02:05:06;;;;;;;13.73;10.70;;;14.90;99.90;;;;;;5022453;28;20461;-76
2021/06/30 02:07:31;;;;;;;10.93;9.10;;;14.90;99.90;;;;;;5006794;28;20434;-77
2021/06/30 02:09:57;;;;;;;11.00;10.10;;;14.90;99.90;;;;;;5021788;28;20426;-76
2021/06/30 02:12:23;;;;;;;9.50;8.60;;;14.80;99.90;;;;;;5021271;28;20237;-76
2021/06/30 02:14:49;;;;;;;10.63;9.07;;;14.90;99.90;;;;;;5022030;28;20446;-76
2021/06/30 02:17:18;;;;;;;10.80;9.30;;;14.80;99.90;;;;;;5014502;28;20728;-76
2021/06/30 02:19:45;;;;;;;10.13;9.13;;;14.80;99.90;;;;;;5016977;28;20191;-77
2021/06/30 02:22:10;;;;;;;10.63;9.53;;;14.80;99.90;;;;;;5012288;28;20940;-76
2021/06/30 02:24:36;;;;;;;11.27;10.20;;;14.80;99.90;;;;;;5024184;28;20476;-77
2021/06/30 02:27:02;;;;;;;11.30;9.53;;;14.80;99.90;;;;;;5024262;28;20191;-76
2021/06/30 02:29:27;;;;;;;11.63;9.23;;;14.80;99.90;;;;;;5020711;28;20226;-76
2021/06/30 02:31:53;;;;;;;11.10;10.00;;;14.80;99.90;;;;;;5026218;28;20190;-76
2021/06/30 02:34:18;;;;;;;11.40;10.00;;;14.80;99.90;;;;;;5022105;28;20214;-76
2021/06/30 02:36:44;;;;;;;11.40;10.23;;;14.80;99.90;;;;;;5021539;28;20731;-76
2021/06/30 02:39:09;;;;;;;10.87;9.57;;;14.80;99.90;;;;;;5021702;28;20656;-77
2021/06/30 02:41:35;;;;;;;12.37;9.57;;;14.80;99.90;;;;;;5024561;28;20282;-76
2021/06/30 02:44:00;;;;;;;11.00;9.90;;;14.70;99.90;;;;;;5023179;28;20200;-76
2021/06/30 02:46:26;;;;;;;12.27;10.97;;;14.80;99.90;;;;;;5028812;28;20592;-76
2021/06/30 02:48:52;;;;;;;11.27;9.67;;;14.80;99.90;;;;;;5019974;28;20690;-76
2021/06/30 02:51:17;;;;;;;12.23;8.90;;;14.70;99.90;;;;;;5022133;28;20210;-76
2021/06/30 02:53:43;;;;;;;11.77;10.57;;;14.70;99.90;;;;;;5022757;28;20210;-77
2021/06/30 02:56:09;;;;;;;11.70;10.50;;;14.70;99.90;;;;;;5023289;28;20652;-76
2021/06/30 02:58:34;;;;;;;17.20;11.77;;;14.60;99.90;;;;;;5023326;28;20429;-74
2021/06/30 03:01:00;;;;;;;12.97;10.20;;;14.70;99.90;;;;;;5001305;28;20564;-75
2021/06/30 03:03:26;;;;;;;14.33;9.17;;;14.70;99.90;;;;;;5023508;28;20203;-78
2021/06/30 03:05:51;;;;;;;15.17;10.47;;;14.60;99.90;;;;;;5018375;28;20645;-77
2021/06/30 03:08:17;;;;;;;12.73;10.70;;;14.60;99.90;;;;;;5027105;28;20187;-74
2021/06/30 03:10:43;;;;;;;11.97;10.07;;;14.60;99.90;;;;;;5009448;28;20211;-75
2021/06/30 03:13:08;;;;;;;11.50;10.10;;;14.60;99.90;;;;;;5020237;28;20208;-75
2021/06/30 03:15:34;;;;;;;11.50;9.00;;;14.50;99.90;;;;;;5021254;28;20270;-75
2021/06/30 03:17:59;;;;;;;11.20;9.60;;;14.60;99.90;;;;;;5019378;28;20270;-76
2021/06/30 03:20:25;;;;;;;14.43;11.07;;;14.70;99.90;;;;;;5010515;28;20230;-75
2021/06/30 03:22:50;;;;;;;13.27;9.90;;;14.70;99.90;;;;;;5004850;28;20222;-77
2021/06/30 03:25:16;;;;;;;12.80;10.63;;;14.60;99.90;;;;;;5027174;28;20255;-76
2021/06/30 03:27:43;;;;;;;12.30;10.60;;;14.60;99.90;;;;;;5019045;28;20191;-75
2021/06/30 03:30:11;;;;;;;12.40;10.00;;;14.70;99.90;;;;;;5019603;28;20191;-75
2021/06/30 03:32:37;;;;;;;12.03;9.70;;;14.70;99.90;;;;;;5011647;28;20496;-75
2021/06/30 03:35:04;;;;;;;11.77;10.20;;;14.60;99.90;;;;;;5014659;28;20982;-75
2021/06/30 03:37:30;;;;;;;12.10;10.10;;;14.70;99.90;;;;;;5014367;28;20828;-75
2021/06/30 03:39:56;;;;;;;15.23;11.20;;;14.70;99.90;;;;;;5019831;28;20512;-75
2021/06/30 03:42:21;;;;;;;12.57;10.50;;;14.70;99.90;;;;;;5021738;28;20674;-75
2021/06/30 03:44:47;;;;;;;12.00;10.70;;;14.70;99.90;;;;;;5020678;28;20306;-75
2021/06/30 03:47:12;;;;;;;17.90;10.50;;;14.70;99.90;;;;;;5019342;28;20198;-75
2021/06/30 03:49:38;;;;;;;13.03;10.60;;;14.70;99.90;;;;;;5006252;28;20198;-75
2021/06/30 03:52:04;;;;;;;11.43;9.50;;;14.70;99.90;;;;;;5020001;28;20187;-75
2021/06/30 03:54:30;;;;;;;11.77;10.47;;;14.70;99.90;;;;;;5020634;28;20214;-75
2021/06/30 03:56:55;;;;;;;10.73;9.60;;;14.80;99.90;;;;;;5019660;28;20430;-73
2021/06/30 03:59:21;;;;;;;13.17;10.40;;;14.80;99.90;;;;;;5019813;28;20229;-75
2021/06/30 04:01:47;;;;;;;10.00;9.00;;;14.90;99.90;;;;;;5018922;28;20191;-75
2021/06/30 04:04:14;;;;;;;11.77;9.13;;;14.80;99.90;;;;;;5019775;28;20611;-76
2021/06/30 04:06:40;;;;;;;11.63;9.20;;;14.90;99.90;;;;;;5015674;28;20431;-76
2021/06/30 04:09:06;;;;;;;10.83;9.73;;;14.90;99.90;;;;;;5015937;28;20503;-75
2021/06/30 04:11:33;;;;;;;11.13;10.03;;;14.90;99.90;;;;;;5013836;28;20505;-75
2021/06/30 04:13:58;;;;;;;10.87;9.00;;;14.90;99.90;;;;;;5008092;28;20207;-77
2021/06/30 04:16:24;;;;;;;10.20;8.80;;;14.90;99.90;;;;;;5021439;28;20918;-76
2021/06/30 04:18:49;;;;;;;11.97;10.00;;;15.00;99.90;;;;;;5021303;28;20236;-77
2021/06/30 04:21:15;;;;;;;11.40;8.57;;;14.90;99.90;;;;;;5018986;28;20216;-75
2021/06/30 04:23:41;;;;;;;11.07;9.40;;;14.90;99.90;;;;;;5008300;28;20215;-77
2021/06/30 04:26:06;;;;;;;11.37;8.53;;;14.90;99.90;;;;;;5020322;28;20191;-78
2021/06/30 04:28:32;;;;;;;11.23;10.03;;;15.00;99.90;;;;;;5015454;28;20272;-77
2021/06/30 04:30:58;;;;;;;9.13;8.23;;;15.00;99.90;;;;;;5010191;28;20187;-75
2021/06/30 04:33:24;;;;;;;10.90;9.30;;;15.00;99.90;;;;;;5019242;28;20207;-76
2021/06/30 04:35:50;;;;;;;9.03;7.80;;;15.10;99.90;;;;;;5022682;28;20202;-77
2021/06/30 04:38:15;;;;;;;10.23;8.10;;;15.10;99.90;;;;;;5019340;28;20198;-71
2021/06/30 04:40:41;;;;;;;12.27;10.23;;;15.10;99.90;;;;;;5017988;28;20434;-70
2021/06/30 04:43:07;;;;;;;10.27;8.80;;;15.20;99.90;;;;;;5014129;28;20221;-71
2021/06/30 04:45:32;;;;;;;9.40;8.47;;;15.10;99.90;;;;;;5019957;28;20211;-71
2021/06/30 04:47:58;;;;;;;13.73;10.10;;;15.20;99.90;;;;;;5020880;28;20230;-71
2021/06/30 04:50:23;;;;;;;12.53;8.60;;;15.20;99.90;;;;;;5018780;28;20188;-69
2021/06/30 04:52:49;;;;;;;10.87;9.10;;;15.30;99.90;;;;;;5017077;28;20243;-70
2021/06/30 04:55:14;;;;;;;10.57;9.00;;;15.30;99.90;;;;;;5018233;28;20191;-70
2021/06/30 04:57:40;;;;;;;9.93;8.77;;;15.40;99.90;;;;;;5018678;28;20310;-71
2021/06/30 05:00:08;;;;;;;11.93;9.40;;;15.40;99.90;;;;;;5019695;28;20198;-69
2021/06/30 05:02:33;;;;;;;11.60;9.03;;;15.50;99.90;;;;;;5014400;28;20187;-71
2021/06/30 05:04:59;;;;;;;10.60;8.43;;;15.50;99.90;;;;;;5023869;28;20919;-69
2021/06/30 05:07:25;;;;;;;10.40;9.00;;;15.60;99.90;;;;;;5023657;28;20648;-73
2021/06/30 05:09:50;;;;;;;9.43;8.43;;;15.60;99.90;;;;;;5002721;28;20203;-74
2021/06/30 05:12:17;;;;;;;11.17;9.47;;;15.60;99.90;;;;;;5016464;28;20180;-76
2021/06/30 05:14:43;;;;;;;12.47;9.10;;;15.70;99.90;;;;;;5021475;28;20195;-75
2021/06/30 05:17:09;;;;;;;11.47;8.93;;;15.80;99.90;;;;;;5019577;28;20965;-75
2021/06/30 05:19:34;;;;;;;10.47;7.97;;;15.90;99.90;;;;;;5018993;28;20502;-77
